sensor_id;sensor_type;location;lat;lon;timestamp;P1;durP1;ratioP1;P2;durP2;ratioP2
8665;SDS011;4370;48.916;8.380;2022-10-24T00:00:44;9.43;;;3.73;;
8665;SDS011;4370;48.916;8.380;2022-10-24T00:03:10;6.20;;;3.13;;
8665;SDS011;4370;48.916;8.380;2022-10-24T00:05:40;4.97;;;2.87;;
8665;SDS011;4370;48.916;8.380;2022-10-24T00:08:09;6.97;;;3.33;;
8665;SDS011;4370;48.916;8.380;2022-10-24T00:10:35;9.77;;;3.73;;
8665;SDS011;4370;48.916;8.380;2022-10-24T00:13:02;8.40;;;3.50;;
8665;SDS011;4370;48.916;8.380;2022-10-24T00:15:29;6.33;;;3.63;;
8665;SDS011;4370;48.916;8.380;2022-10-24T00:17:57;5.63;;;3.13;;
8665;SDS011;4370;48.916;8.380;2022-10-24T00:20:23;6.50;;;3.10;;
8665;SDS011;4370;48.916;8.380;2022-10-24T00:22:49;7.10;;;3.00;;
8665;SDS011;4370;48.916;8.380;2022-10-24T00:25:15;9.40;;;3.37;;
8665;SDS011;4370;48.916;8.380;2022-10-24T00:27:41;19.87;;;3.60;;
8665;SDS011;4370;48.916;8.380;2022-10-24T00:30:08;5.93;;;3.03;;
8665;SDS011;4370;48.916;8.380;2022-10-24T00:32:35;7.63;;;3.63;;
8665;SDS011;4370;48.916;8.380;2022-10-24T00:35:01;3.90;;;2.87;;
8665;SDS011;4370;48.916;8.380;2022-10-24T00:37:27;10.43;;;3.33;;
8665;SDS011;4370;48.916;8.380;2022-10-24T00:39:54;9.00;;;3.47;;
8665;SDS011;4370;48.916;8.380;2022-10-24T00:42:21;4.67;;;2.70;;
8665;SDS011;4370;48.916;8.380;2022-10-24T00:44:51;5.40;;;2.67;;
8665;SDS011;4370;48.916;8.380;2022-10-24T00:47:21;11.33;;;3.67;;
8665;SDS011;4370;48.916;8.380;2022-10-24T00:52:40;3.23;;;2.27;;
8665;SDS011;4370;48.916;8.380;2022-10-24T00:55:12;3.83;;;2.60;;
8665;SDS011;4370;48.916;8.380;2022-10-24T00:57:44;4.03;;;2.30;;
8665;SDS011;4370;48.916;8.380;2022-10-24T01:00:18;6.57;;;2.90;;
8665;SDS011;4370;48.916;8.380;2022-10-24T01:02:47;4.87;;;2.60;;
8665;SDS011;4370;48.916;8.380;2022-10-24T01:05:15;6.87;;;2.20;;
8665;SDS011;4370;48.916;8.380;2022-10-24T01:07:54;6.50;;;2.70;;
8665;SDS011;4370;48.916;8.380;2022-10-24T01:18:24;7.47;;;2.90;;
8665;SDS011;4370;48.916;8.380;2022-10-24T01:21:05;4.37;;;2.50;;
8665;SDS011;4370;48.916;8.380;2022-10-24T01:29:17;5.60;;;2.57;;
8665;SDS011;4370;48.916;8.380;2022-10-24T01:31:52;6.23;;;2.90;;
8665;SDS011;4370;48.916;8.380;2022-10-24T01:34:43;5.57;;;2.60;;
8665;SDS011;4370;48.916;8.380;2022-10-24T01:39:55;5.80;;;2.73;;
8665;SDS011;4370;48.916;8.380;2022-10-24T01:42:28;9.77;;;2.93;;
8665;SDS011;4370;48.916;8.380;2022-10-24T01:44:56;4.50;;;2.70;;
8665;SDS011;4370;48.916;8.380;2022-10-24T01:47:26;8.77;;;3.47;;
8665;SDS011;4370;48.916;8.380;2022-10-24T01:49:57;16.70;;;5.17;;
8665;SDS011;4370;48.916;8.380;2022-10-24T01:52:27;6.17;;;2.67;;
8665;SDS011;4370;48.916;8.380;2022-10-24T01:54:58;6.50;;;2.73;;
8665;SDS011;4370;48.916;8.380;2022-10-24T01:57:27;8.70;;;3.33;;
8665;SDS011;4370;48.916;8.380;2022-10-24T01:59:54;6.97;;;3.27;;
8665;SDS011;4370;48.916;8.380;2022-10-24T02:07:49;8.63;;;3.10;;
8665;SDS011;4370;48.916;8.380;2022-10-24T02:10:24;4.63;;;2.80;;
8665;SDS011;4370;48.916;8.380;2022-10-24T02:12:58;7.17;;;2.83;;
8665;SDS011;4370;48.916;8.380;2022-10-24T02:15:33;4.73;;;2.93;;
8665;SDS011;4370;48.916;8.380;2022-10-24T02:18:05;6.50;;;3.23;;
8665;SDS011;4370;48.916;8.380;2022-10-24T02:20:33;6.13;;;3.00;;
8665;SDS011;4370;48.916;8.380;2022-10-24T02:23:30;10.30;;;3.40;;
8665;SDS011;4370;48.916;8.380;2022-10-24T02:26:09;7.60;;;3.23;;
8665;SDS011;4370;48.916;8.380;2022-10-24T02:28:51;10.63;;;4.00;;
8665;SDS011;4370;48.916;8.380;2022-10-24T02:31:23;6.87;;;3.33;;
8665;SDS011;4370;48.916;8.380;2022-10-24T02:33:51;8.03;;;3.50;;
8665;SDS011;4370;48.916;8.380;2022-10-24T02:36:21;7.70;;;3.37;;
8665;SDS011;4370;48.916;8.380;2022-10-24T02:38:51;9.70;;;3.83;;
8665;SDS011;4370;48.916;8.380;2022-10-24T02:41:21;5.97;;;3.33;;
8665;SDS011;4370;48.916;8.380;2022-10-24T02:43:53;11.83;;;3.80;;
8665;SDS011;4370;48.916;8.380;2022-10-24T02:46:20;7.93;;;3.60;;
8665;SDS011;4370;48.916;8.380;2022-10-24T02:48:47;12.43;;;3.60;;
8665;SDS011;4370;48.916;8.380;2022-10-24T02:51:18;9.90;;;4.13;;
8665;SDS011;4370;48.916;8.380;2022-10-24T02:53:45;9.30;;;3.93;;
8665;SDS011;4370;48.916;8.380;2022-10-24T02:56:11;13.50;;;4.17;;
8665;SDS011;4370;48.916;8.380;2022-10-24T02:58:37;12.13;;;4.07;;
8665;SDS011;4370;48.916;8.380;2022-10-24T03:01:03;8.73;;;3.73;;
8665;SDS011;4370;48.916;8.380;2022-10-24T03:03:29;10.40;;;4.33;;
8665;SDS011;4370;48.916;8.380;2022-10-24T03:05:55;8.87;;;3.87;;
8665;SDS011;4370;48.916;8.380;2022-10-24T03:08:21;7.27;;;3.40;;
8665;SDS011;4370;48.916;8.380;2022-10-24T03:10:47;8.13;;;3.40;;
8665;SDS011;4370;48.916;8.380;2022-10-24T03:13:13;8.10;;;3.63;;
8665;SDS011;4370;48.916;8.380;2022-10-24T03:15:41;9.03;;;3.73;;
8665;SDS011;4370;48.916;8.380;2022-10-24T03:18:08;5.90;;;3.27;;
8665;SDS011;4370;48.916;8.380;2022-10-24T03:20:34;7.03;;;4.00;;
8665;SDS011;4370;48.916;8.380;2022-10-24T03:23:00;9.23;;;3.50;;
8665;SDS011;4370;48.916;8.380;2022-10-24T03:25:28;7.30;;;3.30;;
8665;SDS011;4370;48.916;8.380;2022-10-24T03:27:54;5.70;;;2.93;;
8665;SDS011;4370;48.916;8.380;2022-10-24T03:30:20;7.10;;;3.13;;
8665;SDS011;4370;48.916;8.380;2022-10-24T03:32:46;6.60;;;3.13;;
8665;SDS011;4370;48.916;8.380;2022-10-24T03:35:12;7.60;;;3.40;;
8665;SDS011;4370;48.916;8.380;2022-10-24T03:37:38;12.17;;;4.20;;
8665;SDS011;4370;48.916;8.380;2022-10-24T03:40:05;4.80;;;3.07;;
8665;SDS011;4370;48.916;8.380;2022-10-24T03:42:32;8.33;;;3.63;;
8665;SDS011;4370;48.916;8.380;2022-10-24T03:44:58;8.37;;;3.10;;
8665;SDS011;4370;48.916;8.380;2022-10-24T03:47:23;10.17;;;4.00;;
8665;SDS011;4370;48.916;8.380;2022-10-24T03:49:49;10.67;;;4.27;;
8665;SDS011;4370;48.916;8.380;2022-10-24T03:52:15;7.77;;;3.40;;
8665;SDS011;4370;48.916;8.380;2022-10-24T03:54:42;9.47;;;4.27;;
8665;SDS011;4370;48.916;8.380;2022-10-24T03:57:08;7.57;;;3.97;;
8665;SDS011;4370;48.916;8.380;2022-10-24T03:59:35;9.00;;;3.83;;
8665;SDS011;4370;48.916;8.380;2022-10-24T04:02:01;9.67;;;4.03;;
8665;SDS011;4370;48.916;8.380;2022-10-24T04:04:27;7.47;;;3.43;;
8665;SDS011;4370;48.916;8.380;2022-10-24T04:06:55;8.40;;;3.93;;
8665;SDS011;4370;48.916;8.380;2022-10-24T04:09:23;6.57;;;4.10;;
8665;SDS011;4370;48.916;8.380;2022-10-24T04:11:49;8.90;;;4.40;;
8665;SDS011;4370;48.916;8.380;2022-10-24T04:14:17;12.30;;;4.00;;
8665;SDS011;4370;48.916;8.380;2022-10-24T04:16:43;9.47;;;4.20;;
8665;SDS011;4370;48.916;8.380;2022-10-24T04:19:09;7.83;;;4.13;;
8665;SDS011;4370;48.916;8.380;2022-10-24T04:21:35;6.17;;;3.40;;
8665;SDS011;4370;48.916;8.380;2022-10-24T04:24:02;9.40;;;4.07;;
8665;SDS011;4370;48.916;8.380;2022-10-24T04:26:29;5.13;;;3.60;;
8665;SDS011;4370;48.916;8.380;2022-10-24T04:28:55;6.50;;;3.90;;
8665;SDS011;4370;48.916;8.380;2022-10-24T04:31:20;11.03;;;4.20;;
8665;SDS011;4370;48.916;8.380;2022-10-24T04:33:46;4.77;;;3.93;;
8665;SDS011;4370;48.916;8.380;2022-10-24T04:36:12;6.50;;;3.57;;
8665;SDS011;4370;48.916;8.380;2022-10-24T04:38:39;5.80;;;3.60;;
8665;SDS011;4370;48.916;8.380;2022-10-24T04:41:05;9.73;;;4.20;;
8665;SDS011;4370;48.916;8.380;2022-10-24T04:43:31;8.03;;;3.77;;
8665;SDS011;4370;48.916;8.380;2022-10-24T04:45:57;5.90;;;3.83;;
8665;SDS011;4370;48.916;8.380;2022-10-24T04:48:23;8.67;;;4.33;;
8665;SDS011;4370;48.916;8.380;2022-10-24T04:50:49;6.30;;;4.07;;
8665;SDS011;4370;48.916;8.380;2022-10-24T04:53:15;6.63;;;3.90;;
8665;SDS011;4370;48.916;8.380;2022-10-24T04:55:43;12.50;;;4.20;;
8665;SDS011;4370;48.916;8.380;2022-10-24T04:58:08;16.73;;;5.70;;
8665;SDS011;4370;48.916;8.380;2022-10-24T05:00:34;17.60;;;5.03;;
8665;SDS011;4370;48.916;8.380;2022-10-24T05:03:01;19.33;;;6.07;;
8665;SDS011;4370;48.916;8.380;2022-10-24T05:05:27;20.97;;;6.07;;
8665;SDS011;4370;48.916;8.380;2022-10-24T05:07:53;12.37;;;5.10;;
8665;SDS011;4370;48.916;8.380;2022-10-24T05:10:19;12.70;;;4.63;;
8665;SDS011;4370;48.916;8.380;2022-10-24T05:12:45;10.83;;;4.83;;
8665;SDS011;4370;48.916;8.380;2022-10-24T05:15:11;10.87;;;5.00;;
8665;SDS011;4370;48.916;8.380;2022-10-24T05:17:38;12.87;;;5.40;;
8665;SDS011;4370;48.916;8.380;2022-10-24T05:20:04;10.03;;;4.50;;
8665;SDS011;4370;48.916;8.380;2022-10-24T05:22:32;10.00;;;4.40;;
8665;SDS011;4370;48.916;8.380;2022-10-24T05:24:58;8.77;;;4.30;;
8665;SDS011;4370;48.916;8.380;2022-10-24T05:27:24;9.87;;;4.67;;
8665;SDS011;4370;48.916;8.380;2022-10-24T05:29:51;18.00;;;6.50;;
8665;SDS011;4370;48.916;8.380;2022-10-24T05:32:18;13.00;;;4.67;;
8665;SDS011;4370;48.916;8.380;2022-10-24T05:34:45;8.33;;;4.73;;
8665;SDS011;4370;48.916;8.380;2022-10-24T05:37:11;17.53;;;5.30;;
8665;SDS011;4370;48.916;8.380;2022-10-24T05:39:37;15.27;;;5.17;;
8665;SDS011;4370;48.916;8.380;2022-10-24T05:42:03;14.23;;;5.07;;
8665;SDS011;4370;48.916;8.380;2022-10-24T05:44:30;10.23;;;4.80;;
8665;SDS011;4370;48.916;8.380;2022-10-24T05:46:57;9.43;;;4.50;;
8665;SDS011;4370;48.916;8.380;2022-10-24T05:49:23;10.67;;;4.57;;
8665;SDS011;4370;48.916;8.380;2022-10-24T05:51:50;10.07;;;4.60;;
8665;SDS011;4370;48.916;8.380;2022-10-24T05:54:16;10.67;;;4.23;;
8665;SDS011;4370;48.916;8.380;2022-10-24T05:56:42;19.20;;;5.07;;
8665;SDS011;4370;48.916;8.380;2022-10-24T05:59:08;13.00;;;4.60;;
8665;SDS011;4370;48.916;8.380;2022-10-24T06:01:35;13.77;;;4.87;;
8665;SDS011;4370;48.916;8.380;2022-10-24T06:04:01;12.17;;;4.30;;
8665;SDS011;4370;48.916;8.380;2022-10-24T06:06:27;10.23;;;3.93;;
8665;SDS011;4370;48.916;8.380;2022-10-24T06:08:54;13.07;;;4.53;;
8665;SDS011;4370;48.916;8.380;2022-10-24T06:11:20;10.57;;;4.47;;
8665;SDS011;4370;48.916;8.380;2022-10-24T06:13:46;8.03;;;3.50;;
8665;SDS011;4370;48.916;8.380;2022-10-24T06:16:12;6.43;;;3.77;;
8665;SDS011;4370;48.916;8.380;2022-10-24T06:18:39;8.10;;;3.50;;
8665;SDS011;4370;48.916;8.380;2022-10-24T06:21:06;9.13;;;3.70;;
8665;SDS011;4370;48.916;8.380;2022-10-24T06:23:33;13.93;;;3.93;;
8665;SDS011;4370;48.916;8.380;2022-10-24T06:25:59;6.03;;;3.30;;
8665;SDS011;4370;48.916;8.380;2022-10-24T06:28:25;9.33;;;3.57;;
8665;SDS011;4370;48.916;8.380;2022-10-24T06:30:52;7.80;;;3.40;;
8665;SDS011;4370;48.916;8.380;2022-10-24T06:33:20;9.13;;;3.30;;
8665;SDS011;4370;48.916;8.380;2022-10-24T06:35:46;10.90;;;3.60;;
8665;SDS011;4370;48.916;8.380;2022-10-24T06:38:12;8.73;;;3.70;;
8665;SDS011;4370;48.916;8.380;2022-10-24T06:40:38;9.70;;;3.20;;
8665;SDS011;4370;48.916;8.380;2022-10-24T06:43:06;7.87;;;3.03;;
8665;SDS011;4370;48.916;8.380;2022-10-24T06:45:32;6.83;;;3.30;;
8665;SDS011;4370;48.916;8.380;2022-10-24T06:47:58;8.93;;;3.30;;
8665;SDS011;4370;48.916;8.380;2022-10-24T06:50:24;7.77;;;3.23;;
8665;SDS011;4370;48.916;8.380;2022-10-24T06:52:50;6.57;;;2.80;;
8665;SDS011;4370;48.916;8.380;2022-10-24T06:55:16;9.13;;;2.90;;
8665;SDS011;4370;48.916;8.380;2022-10-24T06:57:42;8.30;;;3.37;;
8665;SDS011;4370;48.916;8.380;2022-10-24T07:00:08;5.93;;;2.93;;
8665;SDS011;4370;48.916;8.380;2022-10-24T07:02:34;4.13;;;2.43;;
8665;SDS011;4370;48.916;8.380;2022-10-24T07:05:01;6.53;;;2.67;;
8665;SDS011;4370;48.916;8.380;2022-10-24T07:07:26;8.60;;;2.70;;
8665;SDS011;4370;48.916;8.380;2022-10-24T07:09:53;5.40;;;2.07;;
8665;SDS011;4370;48.916;8.380;2022-10-24T07:12:21;4.73;;;2.03;;
8665;SDS011;4370;48.916;8.380;2022-10-24T07:14:48;4.17;;;2.10;;
8665;SDS011;4370;48.916;8.380;2022-10-24T07:17:14;2.90;;;2.00;;
8665;SDS011;4370;48.916;8.380;2022-10-24T07:19:40;3.33;;;1.90;;
8665;SDS011;4370;48.916;8.380;2022-10-24T07:22:07;3.27;;;2.10;;
8665;SDS011;4370;48.916;8.380;2022-10-24T07:24:33;3.60;;;1.80;;
8665;SDS011;4370;48.916;8.380;2022-10-24T07:26:58;3.70;;;2.20;;
8665;SDS011;4370;48.916;8.380;2022-10-24T07:29:25;2.63;;;1.93;;
8665;SDS011;4370;48.916;8.380;2022-10-24T07:31:50;5.37;;;2.20;;
8665;SDS011;4370;48.916;8.380;2022-10-24T07:34:16;5.10;;;2.10;;
8665;SDS011;4370;48.916;8.380;2022-10-24T07:36:43;4.80;;;2.03;;
8665;SDS011;4370;48.916;8.380;2022-10-24T07:39:09;3.93;;;2.50;;
8665;SDS011;4370;48.916;8.380;2022-10-24T07:41:36;5.20;;;2.13;;
8665;SDS011;4370;48.916;8.380;2022-10-24T07:44:05;5.00;;;2.43;;
8665;SDS011;4370;48.916;8.380;2022-10-24T07:46:31;3.57;;;1.97;;
8665;SDS011;4370;48.916;8.380;2022-10-24T07:48:57;5.13;;;2.20;;
8665;SDS011;4370;48.916;8.380;2022-10-24T07:51:23;3.57;;;2.13;;
8665;SDS011;4370;48.916;8.380;2022-10-24T07:53:52;4.27;;;2.37;;
8665;SDS011;4370;48.916;8.380;2022-10-24T07:56:18;3.43;;;2.10;;
8665;SDS011;4370;48.916;8.380;2022-10-24T07:58:44;3.60;;;2.10;;
8665;SDS011;4370;48.916;8.380;2022-10-24T08:01:14;4.13;;;2.20;;
8665;SDS011;4370;48.916;8.380;2022-10-24T08:03:41;7.33;;;2.43;;
8665;SDS011;4370;48.916;8.380;2022-10-24T08:06:08;4.67;;;2.30;;
8665;SDS011;4370;48.916;8.380;2022-10-24T08:08:36;3.90;;;2.43;;
8665;SDS011;4370;48.916;8.380;2022-10-24T08:11:05;3.90;;;2.47;;
8665;SDS011;4370;48.916;8.380;2022-10-24T08:13:38;5.50;;;2.20;;
8665;SDS011;4370;48.916;8.380;2022-10-24T08:16:05;6.03;;;2.60;;
8665;SDS011;4370;48.916;8.380;2022-10-24T08:18:31;5.43;;;2.70;;
8665;SDS011;4370;48.916;8.380;2022-10-24T08:20:58;3.93;;;2.40;;
8665;SDS011;4370;48.916;8.380;2022-10-24T08:23:25;6.33;;;2.80;;
8665;SDS011;4370;48.916;8.380;2022-10-24T08:25:51;6.20;;;2.90;;
8665;SDS011;4370;48.916;8.380;2022-10-24T08:28:17;5.50;;;2.73;;
8665;SDS011;4370;48.916;8.380;2022-10-24T08:30:43;5.77;;;2.70;;
8665;SDS011;4370;48.916;8.380;2022-10-24T08:33:09;5.33;;;3.03;;
8665;SDS011;4370;48.916;8.380;2022-10-24T08:35:35;6.03;;;2.80;;
8665;SDS011;4370;48.916;8.380;2022-10-24T08:38:02;8.83;;;3.00;;
8665;SDS011;4370;48.916;8.380;2022-10-24T08:40:27;8.53;;;3.20;;
8665;SDS011;4370;48.916;8.380;2022-10-24T08:42:53;9.07;;;3.20;;
8665;SDS011;4370;48.916;8.380;2022-10-24T08:45:28;6.87;;;2.60;;
8665;SDS011;4370;48.916;8.380;2022-10-24T08:48:01;8.13;;;3.10;;
8665;SDS011;4370;48.916;8.380;2022-10-24T08:50:33;7.87;;;2.80;;
8665;SDS011;4370;48.916;8.380;2022-10-24T08:58:09;6.30;;;3.00;;
8665;SDS011;4370;48.916;8.380;2022-10-24T09:00:40;6.40;;;3.40;;
8665;SDS011;4370;48.916;8.380;2022-10-24T09:05:47;6.70;;;3.07;;
8665;SDS011;4370;48.916;8.380;2022-10-24T09:08:23;8.43;;;3.23;;
8665;SDS011;4370;48.916;8.380;2022-10-24T09:11:10;6.53;;;3.10;;
8665;SDS011;4370;48.916;8.380;2022-10-24T09:13:43;6.67;;;2.83;;
8665;SDS011;4370;48.916;8.380;2022-10-24T09:16:13;5.73;;;3.10;;
8665;SDS011;4370;48.916;8.380;2022-10-24T09:18:40;11.30;;;3.00;;
8665;SDS011;4370;48.916;8.380;2022-10-24T09:21:09;7.67;;;3.33;;
8665;SDS011;4370;48.916;8.380;2022-10-24T09:23:38;8.37;;;3.90;;
8665;SDS011;4370;48.916;8.380;2022-10-24T09:26:06;7.80;;;2.77;;
8665;SDS011;4370;48.916;8.380;2022-10-24T09:28:37;7.03;;;2.97;;
8665;SDS011;4370;48.916;8.380;2022-10-24T09:31:10;6.07;;;2.40;;
8665;SDS011;4370;48.916;8.380;2022-10-24T09:33:43;6.47;;;3.07;;
8665;SDS011;4370;48.916;8.380;2022-10-24T09:36:11;7.20;;;3.10;;
8665;SDS011;4370;48.916;8.380;2022-10-24T09:38:39;10.23;;;3.10;;
8665;SDS011;4370;48.916;8.380;2022-10-24T09:41:07;10.67;;;2.97;;
8665;SDS011;4370;48.916;8.380;2022-10-24T09:43:54;7.50;;;2.67;;
8665;SDS011;4370;48.916;8.380;2022-10-24T09:48:48;6.37;;;2.70;;
8665;SDS011;4370;48.916;8.380;2022-10-24T09:51:25;7.77;;;3.00;;
8665;SDS011;4370;48.916;8.380;2022-10-24T09:54:00;8.97;;;2.70;;
8665;SDS011;4370;48.916;8.380;2022-10-24T10:01:52;5.37;;;2.60;;
8665;SDS011;4370;48.916;8.380;2022-10-24T10:04:18;7.97;;;2.73;;
8665;SDS011;4370;48.916;8.380;2022-10-24T10:06:47;11.80;;;3.00;;
8665;SDS011;4370;48.916;8.380;2022-10-24T10:09:15;12.33;;;3.40;;
8665;SDS011;4370;48.916;8.380;2022-10-24T10:11:56;8.77;;;3.07;;
8665;SDS011;4370;48.916;8.380;2022-10-24T10:14:24;10.67;;;3.20;;
8665;SDS011;4370;48.916;8.380;2022-10-24T10:17:02;7.50;;;2.80;;
8665;SDS011;4370;48.916;8.380;2022-10-24T10:19:39;11.70;;;3.20;;
8665;SDS011;4370;48.916;8.380;2022-10-24T10:24:51;7.33;;;2.83;;
8665;SDS011;4370;48.916;8.380;2022-10-24T10:35:47;5.80;;;2.70;;
8665;SDS011;4370;48.916;8.380;2022-10-24T10:41:00;7.73;;;2.67;;
8665;SDS011;4370;48.916;8.380;2022-10-24T10:43:55;5.70;;;2.47;;
8665;SDS011;4370;48.916;8.380;2022-10-24T10:49:34;6.47;;;2.70;;
8665;SDS011;4370;48.916;8.380;2022-10-24T10:52:12;8.10;;;3.00;;
8665;SDS011;4370;48.916;8.380;2022-10-24T10:57:28;7.43;;;3.07;;
8665;SDS011;4370;48.916;8.380;2022-10-24T11:05:04;8.13;;;3.30;;
8665;SDS011;4370;48.916;8.380;2022-10-24T11:10:40;9.70;;;2.77;;
8665;SDS011;4370;48.916;8.380;2022-10-24T11:13:15;5.83;;;2.87;;
8665;SDS011;4370;48.916;8.380;2022-10-24T11:15:46;6.40;;;3.10;;
8665;SDS011;4370;48.916;8.380;2022-10-24T11:18:20;10.37;;;2.90;;
8665;SDS011;4370;48.916;8.380;2022-10-24T11:20:55;12.23;;;3.03;;
8665;SDS011;4370;48.916;8.380;2022-10-24T11:25:57;8.03;;;3.30;;
8665;SDS011;4370;48.916;8.380;2022-10-24T11:31:41;6.47;;;3.03;;
8665;SDS011;4370;48.916;8.380;2022-10-24T11:36:49;8.97;;;3.07;;
8665;SDS011;4370;48.916;8.380;2022-10-24T11:50:38;7.70;;;2.90;;
8665;SDS011;4370;48.916;8.380;2022-10-24T11:55:57;7.53;;;2.80;;
8665;SDS011;4370;48.916;8.380;2022-10-24T11:58:25;8.33;;;2.70;;
8665;SDS011;4370;48.916;8.380;2022-10-24T12:03:35;7.13;;;3.10;;
8665;SDS011;4370;48.916;8.380;2022-10-24T12:19:29;8.57;;;3.37;;
8665;SDS011;4370;48.916;8.380;2022-10-24T12:21:57;9.43;;;3.10;;
8665;SDS011;4370;48.916;8.380;2022-10-24T12:24:29;7.00;;;3.20;;
8665;SDS011;4370;48.916;8.380;2022-10-24T12:27:03;6.30;;;3.00;;
8665;SDS011;4370;48.916;8.380;2022-10-24T12:29:31;11.17;;;3.00;;
8665;SDS011;4370;48.916;8.380;2022-10-24T12:31:59;7.37;;;2.60;;
8665;SDS011;4370;48.916;8.380;2022-10-24T12:37:51;10.63;;;3.07;;
8665;SDS011;4370;48.916;8.380;2022-10-24T12:43:13;7.37;;;3.00;;
8665;SDS011;4370;48.916;8.380;2022-10-24T12:45:52;10.77;;;3.30;;
8665;SDS011;4370;48.916;8.380;2022-10-24T12:48:27;10.20;;;3.63;;
8665;SDS011;4370;48.916;8.380;2022-10-24T12:51:04;10.57;;;3.20;;
8665;SDS011;4370;48.916;8.380;2022-10-24T12:59:30;7.70;;;2.80;;
8665;SDS011;4370;48.916;8.380;2022-10-24T13:03:02;7.37;;;3.10;;
8665;SDS011;4370;48.916;8.380;2022-10-24T13:05:34;11.47;;;3.40;;
8665;SDS011;4370;48.916;8.380;2022-10-24T13:08:25;7.47;;;3.50;;
8665;SDS011;4370;48.916;8.380;2022-10-24T13:11:03;14.37;;;3.83;;
8665;SDS011;4370;48.916;8.380;2022-10-24T13:17:34;9.53;;;3.33;;
8665;SDS011;4370;48.916;8.380;2022-10-24T13:19:44;7.70;;;3.27;;
8665;SDS011;4370;48.916;8.380;2022-10-24T13:22:26;9.80;;;3.27;;
8665;SDS011;4370;48.916;8.380;2022-10-24T13:24:59;6.40;;;2.50;;
8665;SDS011;4370;48.916;8.380;2022-10-24T13:30:44;8.93;;;3.17;;
8665;SDS011;4370;48.916;8.380;2022-10-24T13:36:07;12.00;;;3.10;;
8665;SDS011;4370;48.916;8.380;2022-10-24T13:38:47;7.73;;;2.77;;
8665;SDS011;4370;48.916;8.380;2022-10-24T13:41:18;8.07;;;2.93;;
8665;SDS011;4370;48.916;8.380;2022-10-24T13:43:56;9.47;;;3.13;;
8665;SDS011;4370;48.916;8.380;2022-10-24T13:46:40;10.90;;;2.80;;
8665;SDS011;4370;48.916;8.380;2022-10-24T13:52:21;10.70;;;2.67;;
8665;SDS011;4370;48.916;8.380;2022-10-24T13:57:51;8.97;;;3.03;;
8665;SDS011;4370;48.916;8.380;2022-10-24T14:00:24;7.63;;;2.60;;
8665;SDS011;4370;48.916;8.380;2022-10-24T14:02:52;8.17;;;2.83;;
8665;SDS011;4370;48.916;8.380;2022-10-24T14:08:04;12.10;;;2.77;;
8665;SDS011;4370;48.916;8.380;2022-10-24T14:10:32;6.77;;;3.17;;
8665;SDS011;4370;48.916;8.380;2022-10-24T14:12:58;4.97;;;2.40;;
8665;SDS011;4370;48.916;8.380;2022-10-24T14:15:26;6.43;;;2.20;;
8665;SDS011;4370;48.916;8.380;2022-10-24T14:18:03;5.77;;;2.30;;
8665;SDS011;4370;48.916;8.380;2022-10-24T14:20:38;7.00;;;2.33;;
8665;SDS011;4370;48.916;8.380;2022-10-24T14:23:24;7.70;;;2.40;;
8665;SDS011;4370;48.916;8.380;2022-10-24T14:26:07;8.23;;;2.50;;
8665;SDS011;4370;48.916;8.380;2022-10-24T14:28:42;6.30;;;2.67;;
8665;SDS011;4370;48.916;8.380;2022-10-24T14:31:23;5.77;;;2.17;;
8665;SDS011;4370;48.916;8.380;2022-10-24T14:33:55;8.67;;;2.90;;
8665;SDS011;4370;48.916;8.380;2022-10-24T14:36:28;4.73;;;2.43;;
8665;SDS011;4370;48.916;8.380;2022-10-24T14:38:56;6.23;;;2.47;;
8665;SDS011;4370;48.916;8.380;2022-10-24T14:41:28;6.53;;;2.50;;
8665;SDS011;4370;48.916;8.380;2022-10-24T14:43:58;4.60;;;2.00;;
8665;SDS011;4370;48.916;8.380;2022-10-24T14:46:34;7.00;;;2.60;;
8665;SDS011;4370;48.916;8.380;2022-10-24T14:54:34;6.07;;;2.43;;
8665;SDS011;4370;48.916;8.380;2022-10-24T14:57:01;7.40;;;3.07;;
8665;SDS011;4370;48.916;8.380;2022-10-24T14:59:35;5.63;;;2.80;;
8665;SDS011;4370;48.916;8.380;2022-10-24T15:04:29;8.47;;;2.67;;
8665;SDS011;4370;48.916;8.380;2022-10-24T15:09:58;4.43;;;2.20;;
8665;SDS011;4370;48.916;8.380;2022-10-24T15:15:24;7.97;;;3.13;;
8665;SDS011;4370;48.916;8.380;2022-10-24T15:17:51;6.20;;;2.23;;
8665;SDS011;4370;48.916;8.380;2022-10-24T15:20:22;5.47;;;3.00;;
8665;SDS011;4370;48.916;8.380;2022-10-24T15:22:54;6.97;;;2.63;;
8665;SDS011;4370;48.916;8.380;2022-10-24T15:25:26;5.73;;;2.90;;
8665;SDS011;4370;48.916;8.380;2022-10-24T15:27:55;6.93;;;2.93;;
8665;SDS011;4370;48.916;8.380;2022-10-24T15:30:34;7.27;;;2.87;;
8665;SDS011;4370;48.916;8.380;2022-10-24T15:33:02;6.50;;;2.70;;
8665;SDS011;4370;48.916;8.380;2022-10-24T15:35:33;8.03;;;3.33;;
8665;SDS011;4370;48.916;8.380;2022-10-24T15:38:14;8.30;;;2.50;;
8665;SDS011;4370;48.916;8.380;2022-10-24T15:40:45;4.30;;;2.10;;
8665;SDS011;4370;48.916;8.380;2022-10-24T15:43:12;3.57;;;2.57;;
8665;SDS011;4370;48.916;8.380;2022-10-24T15:45:39;5.30;;;2.43;;
8665;SDS011;4370;48.916;8.380;2022-10-24T15:48:05;2.87;;;2.23;;
8665;SDS011;4370;48.916;8.380;2022-10-24T15:50:31;4.93;;;2.60;;
8665;SDS011;4370;48.916;8.380;2022-10-24T15:52:59;3.70;;;2.30;;
8665;SDS011;4370;48.916;8.380;2022-10-24T15:55:27;2.23;;;2.00;;
8665;SDS011;4370;48.916;8.380;2022-10-24T15:57:54;4.90;;;2.57;;
8665;SDS011;4370;48.916;8.380;2022-10-24T16:00:27;4.20;;;2.43;;
8665;SDS011;4370;48.916;8.380;2022-10-24T16:02:54;3.30;;;2.37;;
8665;SDS011;4370;48.916;8.380;2022-10-24T16:05:23;3.83;;;1.97;;
8665;SDS011;4370;48.916;8.380;2022-10-24T16:07:51;4.03;;;2.40;;
8665;SDS011;4370;48.916;8.380;2022-10-24T16:10:17;3.70;;;2.30;;
8665;SDS011;4370;48.916;8.380;2022-10-24T16:12:45;3.65;;;2.40;;
8665;SDS011;4370;48.916;8.380;2022-10-24T16:15:19;3.60;;;2.40;;
8665;SDS011;4370;48.916;8.380;2022-10-24T16:17:49;3.83;;;2.30;;
8665;SDS011;4370;48.916;8.380;2022-10-24T16:20:16;4.93;;;2.90;;
8665;SDS011;4370;48.916;8.380;2022-10-24T16:22:42;5.43;;;2.93;;
8665;SDS011;4370;48.916;8.380;2022-10-24T16:25:15;5.73;;;2.50;;
8665;SDS011;4370;48.916;8.380;2022-10-24T16:27:43;5.00;;;2.80;;
8665;SDS011;4370;48.916;8.380;2022-10-24T16:30:11;3.63;;;2.60;;
8665;SDS011;4370;48.916;8.380;2022-10-24T16:32:37;4.23;;;2.57;;
8665;SDS011;4370;48.916;8.380;2022-10-24T16:35:03;3.40;;;2.50;;
8665;SDS011;4370;48.916;8.380;2022-10-24T16:37:29;3.17;;;2.30;;
8665;SDS011;4370;48.916;8.380;2022-10-24T16:39:55;3.97;;;2.40;;
8665;SDS011;4370;48.916;8.380;2022-10-24T16:42:21;3.20;;;2.30;;
8665;SDS011;4370;48.916;8.380;2022-10-24T16:44:48;4.07;;;2.40;;
8665;SDS011;4370;48.916;8.380;2022-10-24T16:47:14;3.53;;;2.37;;
8665;SDS011;4370;48.916;8.380;2022-10-24T16:49:40;2.83;;;2.20;;
8665;SDS011;4370;48.916;8.380;2022-10-24T16:52:06;4.83;;;2.93;;
8665;SDS011;4370;48.916;8.380;2022-10-24T16:54:32;7.70;;;3.23;;
8665;SDS011;4370;48.916;8.380;2022-10-24T16:56:58;4.20;;;2.80;;
8665;SDS011;4370;48.916;8.380;2022-10-24T16:59:24;7.40;;;3.27;;
8665;SDS011;4370;48.916;8.380;2022-10-24T17:01:52;6.60;;;3.90;;
8665;SDS011;4370;48.916;8.380;2022-10-24T17:04:18;6.77;;;3.73;;
8665;SDS011;4370;48.916;8.380;2022-10-24T17:06:44;10.57;;;4.07;;
8665;SDS011;4370;48.916;8.380;2022-10-24T17:09:10;8.73;;;3.70;;
8665;SDS011;4370;48.916;8.380;2022-10-24T17:11:36;8.00;;;3.50;;
8665;SDS011;4370;48.916;8.380;2022-10-24T17:14:01;8.67;;;3.47;;
8665;SDS011;4370;48.916;8.380;2022-10-24T17:16:27;7.23;;;3.37;;
8665;SDS011;4370;48.916;8.380;2022-10-24T17:18:53;8.80;;;3.20;;
8665;SDS011;4370;48.916;8.380;2022-10-24T17:21:20;8.90;;;3.40;;
8665;SDS011;4370;48.916;8.380;2022-10-24T17:23:49;7.17;;;3.00;;
8665;SDS011;4370;48.916;8.380;2022-10-24T17:26:17;8.03;;;3.67;;
8665;SDS011;4370;48.916;8.380;2022-10-24T17:28:43;6.93;;;2.63;;
8665;SDS011;4370;48.916;8.380;2022-10-24T17:31:10;4.50;;;2.40;;
8665;SDS011;4370;48.916;8.380;2022-10-24T17:33:36;4.97;;;1.90;;
8665;SDS011;4370;48.916;8.380;2022-10-24T17:36:03;3.33;;;1.60;;
8665;SDS011;4370;48.916;8.380;2022-10-24T17:41:25;4.07;;;1.83;;
8665;SDS011;4370;48.916;8.380;2022-10-24T17:43:58;3.00;;;1.70;;
8665;SDS011;4370;48.916;8.380;2022-10-24T17:46:24;1.83;;;1.63;;
8665;SDS011;4370;48.916;8.380;2022-10-24T17:48:50;4.67;;;2.03;;
8665;SDS011;4370;48.916;8.380;2022-10-24T17:51:19;6.17;;;2.10;;
8665;SDS011;4370;48.916;8.380;2022-10-24T17:53:46;2.20;;;1.70;;
8665;SDS011;4370;48.916;8.380;2022-10-24T17:56:12;3.43;;;1.63;;
8665;SDS011;4370;48.916;8.380;2022-10-24T17:58:38;3.30;;;1.60;;